Time;durP1;ratioP1;P1;durP2;ratioP2;P2;SDS_P1;SDS_P2;PMS_P1;PMS_P2;Temp;Humidity;BMP_temperature;BMP_pressure;BME280_temperature;BME280_humidity;BME280_pressure;Samples;Min_cycle;Max_cycle;Signal;HPM_P1;HPM_P2
2023/01/26 19:27:52;;;;;;;16.45;3.90;;;7.70;99.90;;;;;;5044951;28;20969;-87
2023/01/26 19:30:18;;;;;;;11.13;3.05;;;7.60;99.90;;;;;;5009026;28;20056;-88
2023/01/26 19:35:30;;;;;;;9.63;2.70;;;7.60;99.90;;;;;;5012565;28;20070;-87
2023/01/26 19:37:56;;;;;;;15.27;2.15;;;7.70;99.90;;;;;;5022160;28;20018;-90
2023/01/26 19:40:21;;;;;;;8.32;2.25;;;7.70;99.90;;;;;;5015280;28;162838;-89
2023/01/26 19:42:47;;;;;;;13.95;2.20;;;7.80;99.90;;;;;;5058615;28;20484;-90
2023/01/26 19:45:13;;;;;;;10.45;2.15;;;7.80;99.90;;;;;;5052354;28;20023;-88
2023/01/26 19:47:39;;;;;;;4.68;1.73;;;7.70;99.90;;;;;;5044752;28;20044;-87
2023/01/26 19:50:08;;;;;;;14.93;3.55;;;7.70;99.90;;;;;;5050663;28;20025;-88
2023/01/26 19:52:34;;;;;;;6.03;2.40;;;7.70;99.90;;;;;;5054221;28;20105;-88
2023/01/26 19:55:00;;;;;;;11.43;3.00;;;7.70;99.90;;;;;;5042524;28;20511;-85
2023/01/26 19:57:26;;;;;;;12.70;2.92;;;7.70;99.90;;;;;;5043108;28;20056;-88
2023/01/26 19:59:55;;;;;;;14.27;2.47;;;7.70;99.90;;;;;;5046251;28;20021;-87
2023/01/26 20:02:21;;;;;;;13.05;2.45;;;7.70;99.90;;;;;;5048874;28;20021;-85
2023/01/26 20:04:47;;;;;;;15.65;2.63;;;7.70;99.90;;;;;;5048480;28;20313;-84
2023/01/26 20:07:15;;;;;;;12.73;2.50;;;7.70;99.90;;;;;;5045540;28;20055;-84
2023/01/26 20:09:41;;;;;;;10.70;2.85;;;7.70;99.90;;;;;;5050252;28;20026;-87
2023/01/26 20:12:08;;;;;;;9.45;2.40;;;7.70;99.90;;;;;;5051787;28;20029;-88
2023/01/26 20:14:36;;;;;;;17.13;2.50;;;7.70;99.90;;;;;;5054019;28;20031;-86
2023/01/26 20:17:02;;;;;;;8.60;2.28;;;7.70;99.90;;;;;;5039067;28;20776;-86
2023/01/26 20:19:28;;;;;;;20.92;2.85;;;7.70;99.90;;;;;;5052423;28;20111;-86
2023/01/26 20:21:54;;;;;;;15.68;3.05;;;7.70;99.90;;;;;;5051940;28;20035;-87
2023/01/26 20:24:20;;;;;;;19.08;4.88;;;7.70;99.90;;;;;;5045837;28;20024;-88
2023/01/26 20:26:46;;;;;;;14.80;4.53;;;7.70;99.90;;;;;;5047885;28;20255;-87
2023/01/26 20:29:17;;;;;;;10.77;4.03;;;7.60;99.90;;;;;;5050082;28;20036;-89
2023/01/26 20:31:44;;;;;;;14.25;4.72;;;7.70;99.90;;;;;;5054394;28;20031;-86
2023/01/26 20:34:11;;;;;;;30.15;3.97;;;7.60;99.90;;;;;;5053485;28;20037;-85
2023/01/26 20:36:39;;;;;;;70.40;22.30;;;7.70;99.90;;;;;;5047531;28;20032;-85
2023/01/26 20:39:06;;;;;;;21.05;6.15;;;7.70;99.90;;;;;;5039367;28;20120;-86
2023/01/26 20:41:34;;;;;;;9.85;3.35;;;7.70;99.90;;;;;;5039683;28;20140;-86
2023/01/26 20:44:04;;;;;;;18.70;3.30;;;7.70;99.90;;;;;;5034592;28;20126;-87
2023/01/26 20:46:37;;;;;;;14.40;2.88;;;7.70;99.90;;;;;;5039265;28;20087;-87
2023/01/26 20:49:04;;;;;;;14.43;3.40;;;7.70;99.90;;;;;;5036376;28;20021;-86
2023/01/26 20:51:34;;;;;;;16.50;3.78;;;7.80;99.90;;;;;;5041613;28;20452;-87
2023/01/26 20:54:00;;;;;;;13.50;3.53;;;7.70;99.90;;;;;;5043332;28;20025;-87
2023/01/26 20:56:26;;;;;;;17.48;4.13;;;7.70;99.90;;;;;;5039915;28;20021;-86
2023/01/26 20:58:53;;;;;;;14.65;3.47;;;7.70;99.90;;;;;;5037170;28;20032;-85
2023/01/26 21:01:19;;;;;;;15.32;3.30;;;7.70;99.90;;;;;;5042040;28;20021;-86
2023/01/26 21:03:45;;;;;;;16.23;3.38;;;7.70;99.90;;;;;;5038301;28;20206;-87
2023/01/26 21:06:14;;;;;;;13.00;3.25;;;7.70;99.90;;;;;;5040043;28;20041;-86
2023/01/26 21:08:40;;;;;;;11.20;3.65;;;7.70;99.90;;;;;;5035447;28;20037;-86
2023/01/26 21:11:13;;;;;;;12.65;3.05;;;7.70;99.90;;;;;;5043411;28;20079;-86
2023/01/26 21:13:41;;;;;;;14.50;3.00;;;7.60;99.90;;;;;;5034539;28;20033;-86
2023/01/26 21:16:12;;;;;;;11.25;2.80;;;7.60;99.90;;;;;;5042399;28;20427;-86
2023/01/26 21:18:38;;;;;;;16.73;2.60;;;7.60;99.90;;;;;;5040826;28;20028;-87
2023/01/26 21:21:06;;;;;;;10.68;2.47;;;7.60;99.90;;;;;;5036400;28;20029;-87
2023/01/26 21:23:33;;;;;;;17.27;2.85;;;7.60;99.90;;;;;;5036802;28;20052;-85
2023/01/26 21:26:04;;;;;;;15.70;2.97;;;7.60;99.90;;;;;;5032674;28;20044;-84
2023/01/26 21:28:32;;;;;;;19.83;3.30;;;7.70;99.90;;;;;;5033166;28;20156;-85
2023/01/26 21:31:13;;;;;;;8.10;2.45;;;7.70;99.90;;;;;;5035186;28;20026;-86
2023/01/26 21:33:41;;;;;;;16.80;2.92;;;7.60;99.90;;;;;;5042958;28;20025;-85
2023/01/26 21:36:09;;;;;;;11.13;2.85;;;7.60;99.90;;;;;;5045850;28;20066;-86
2023/01/26 21:38:44;;;;;;;11.32;2.50;;;7.60;99.90;;;;;;5042514;28;20029;-85
2023/01/26 21:44:02;;;;;;;19.42;2.40;;;7.50;99.90;;;;;;5033881;28;20035;-86
2023/01/26 21:46:29;;;;;;;8.93;1.92;;;7.40;99.90;;;;;;5042671;28;20029;-86
2023/01/26 21:48:54;;;;;;;12.98;2.30;;;7.40;99.90;;;;;;5042206;28;20032;-87
2023/01/26 21:54:06;;;;;;;11.30;2.03;;;7.30;99.90;;;;;;5036477;28;20040;-87
2023/01/26 21:56:41;;;;;;;9.45;2.75;;;7.30;99.90;;;;;;5047233;28;20484;-88
2023/01/26 21:59:10;;;;;;;9.18;1.85;;;7.40;99.90;;;;;;5038381;28;20018;-85
2023/01/26 22:01:38;;;;;;;6.40;1.90;;;7.40;99.90;;;;;;5035775;28;20101;-86
2023/01/26 22:04:06;;;;;;;9.48;1.90;;;7.40;99.90;;;;;;5043037;28;20078;-87
2023/01/26 22:06:33;;;;;;;6.70;2.00;;;7.40;99.90;;;;;;5035762;28;20687;-85
2023/01/26 22:09:02;;;;;;;10.23;1.95;;;7.50;99.90;;;;;;5040361;28;20477;-84
2023/01/26 22:11:28;;;;;;;9.75;1.80;;;7.50;99.90;;;;;;5035742;28;20048;-85
2023/01/26 22:13:54;;;;;;;6.72;2.08;;;7.50;99.90;;;;;;5032647;28;20037;-85
2023/01/26 22:16:19;;;;;;;15.85;2.13;;;7.50;99.90;;;;;;5033313;28;20013;-86
2023/01/26 22:18:47;;;;;;;9.73;1.70;;;7.50;99.90;;;;;;5035077;28;20032;-85
2023/01/26 22:21:13;;;;;;;9.52;1.73;;;7.50;99.90;;;;;;5035103;28;20021;-83
2023/01/26 22:23:39;;;;;;;7.55;1.85;;;7.40;99.90;;;;;;5033547;28;20080;-85
2023/01/26 22:26:14;;;;;;;3.72;1.55;;;7.40;99.90;;;;;;5038741;28;20064;-85
2023/01/26 22:28:43;;;;;;;12.73;2.63;;;7.30;99.90;;;;;;5037881;28;20040;-85
2023/01/26 22:31:09;;;;;;;8.50;2.53;;;7.20;99.90;;;;;;5030771;28;20362;-85
2023/01/26 22:33:35;;;;;;;9.15;2.33;;;7.20;99.90;;;;;;5032357;28;20449;-85
2023/01/26 22:36:11;;;;;;;7.82;2.13;;;7.20;99.90;;;;;;5034894;28;20433;-85
2023/01/26 22:38:37;;;;;;;13.32;2.42;;;7.20;99.90;;;;;;5040505;28;20369;-85
2023/01/26 22:41:05;;;;;;;6.22;1.80;;;7.10;99.90;;;;;;5031394;28;20146;-85
2023/01/26 22:43:33;;;;;;;8.95;1.88;;;7.10;99.90;;;;;;5033350;28;20149;-84
2023/01/26 22:46:05;;;;;;;9.60;2.20;;;7.10;99.90;;;;;;5037579;28;20040;-85
2023/01/26 22:48:31;;;;;;;11.70;2.05;;;7.10;99.90;;;;;;5039157;28;20033;-86
2023/01/26 22:50:57;;;;;;;6.25;1.83;;;7.10;99.90;;;;;;5039769;28;20567;-85
2023/01/26 22:53:23;;;;;;;13.70;1.92;;;7.10;99.90;;;;;;5037086;28;20101;-85
2023/01/26 22:55:52;;;;;;;6.20;1.77;;;7.10;99.90;;;;;;5034141;28;20478;-86
2023/01/26 22:58:18;;;;;;;11.73;2.42;;;7.10;99.90;;;;;;5040338;28;20170;-85
2023/01/26 23:00:44;;;;;;;13.60;2.78;;;7.10;99.90;;;;;;5034070;28;20025;-83
2023/01/26 23:03:09;;;;;;;13.00;2.60;;;7.10;99.90;;;;;;5041465;28;20132;-86
2023/01/26 23:05:35;;;;;;;11.20;2.20;;;7.20;99.90;;;;;;5038493;28;20389;-85
2023/01/26 23:08:01;;;;;;;10.15;2.35;;;7.20;99.90;;;;;;5031734;28;20033;-86
2023/01/26 23:10:28;;;;;;;11.63;2.63;;;7.20;99.90;;;;;;5035196;28;20671;-85
2023/01/26 23:12:54;;;;;;;8.20;2.60;;;7.20;99.90;;;;;;5036513;28;20013;-87
2023/01/26 23:15:20;;;;;;;14.00;2.33;;;7.20;99.90;;;;;;5036209;28;20029;-87
2023/01/26 23:17:49;;;;;;;4.93;2.40;;;7.10;99.90;;;;;;5037486;28;20465;-87
2023/01/26 23:20:16;;;;;;;7.50;2.40;;;7.10;99.90;;;;;;5034928;28;20017;-88
2023/01/26 23:22:41;;;;;;;16.13;3.78;;;7.10;99.90;;;;;;5030887;28;20099;-88
2023/01/26 23:27:51;;;;;;;9.88;3.10;;;7.00;99.90;;;;;;5031486;28;20063;-89
2023/01/26 23:30:17;;;;;;;13.82;2.97;;;7.00;99.90;;;;;;5035789;28;20081;-89
2023/01/26 23:32:43;;;;;;;8.95;2.72;;;6.90;99.90;;;;;;5038967;28;20025;-89
2023/01/26 23:35:08;;;;;;;10.68;3.47;;;6.90;99.90;;;;;;5032258;28;20018;-89
2023/01/26 23:37:34;;;;;;;7.45;2.47;;;6.90;99.90;;;;;;5033467;28;20025;-89
2023/01/26 23:39:59;;;;;;;13.02;3.40;;;6.90;99.90;;;;;;5032627;28;20025;-88
2023/01/26 23:42:25;;;;;;;12.68;3.55;;;6.90;99.90;;;;;;5127168;22;20145;-87
2023/01/26 23:44:51;;;;;;;9.27;3.20;;;6.90;99.90;;;;;;4984621;28;20023;-86
2023/01/26 23:47:16;;;;;;;10.48;3.42;;;6.90;99.90;;;;;;4973692;28;20041;-87
2023/01/26 23:49:42;;;;;;;11.93;3.60;;;6.90;99.90;;;;;;4969770;28;20047;-87
2023/01/26 23:52:07;;;;;;;10.18;3.35;;;6.90;99.90;;;;;;4980588;28;20038;-86
2023/01/26 23:54:33;;;;;;;13.52;3.88;;;6.90;99.90;;;;;;4984702;28;20705;-87
2023/01/26 23:56:58;;;;;;;13.30;4.05;;;6.90;99.90;;;;;;4970003;28;20046;-87
2023/01/26 23:59:24;;;;;;;17.88;3.95;;;6.90;99.90;;;;;;4971364;28;20019;-84
